Pompano Beach, FL

9:21 AM EDT on September 03, 2015 (GMT -0400)
Crystal Lake | | Change Station
CLOSE
Current Station
Personal Weather Station
Location: Deerfield Beach, FL
Elevation: 14 ft
Nearby Weather Stations

Elev 14 ft 26.29 °N, 80.14 °W | Updated 6 seconds ago

Partly Cloudy
Partly Cloudy
84.0 °F
Feels Like 94 °F
N
0.4
Wind Variable Wind from WNW
Gusts 2.5 mph

Today
High -- | Low -- °F
--% Chance of Precip.
Yesterday
High -- | Low -- °F
Precip. -- in
7:01 AM 7:38 PM
Waning Gibbous, 70% visible
Pressure 30.00 in
Visibility 10.0 miles
Clouds Few 2300 ft
Few 5000 ft
Scattered Clouds 25000 ft
Heat Index 94 °F
Dew Point 78 °F
Humidity 81%
Rainfall 0.00 in
Snow Depth Not available.
UV 2.0 out of 12
Pollen 4.70 out of 12
Air Quality Not available.
Flu Activity Not available.
METAR KPMP 031253Z 29004KT 10SM FEW023 FEW050 SCT250 29/24 A3000 RMK AO2 SLP159 T02940244
Pressure 30.00 in
Visibility 10.0 miles
Clouds Few 2300 ft
Few 5000 ft
Scattered Clouds 25000 ft
Heat Index 94 °F
Dew Point 78 °F
Humidity 81%
Rainfall 0.00 in
Snow Depth Not available.
UV 2.0 out of 12
Pollen 4.70 out of 12
Air Quality Not available.
Flu Activity Not available.
METAR KPMP 031253Z 29004KT 10SM FEW023 FEW050 SCT250 29/24 A3000 RMK AO2 SLP159 T02940244

10-Day Weather Forecast

×

Almanac

Astronomy

Sep. 03, 2015 Rise Set
Actual Time
Civil Twilight
Nautical Twilight
Astronomical Twilight
Moon
Length of Visible Light
Length of Day
Tomorrow will be .
, % of the Moon is Illuminated

Today's Extremes

State Highs State Lows

Community

WunderPhotos

Upload Photos

1,851,953 photos uploaded!

WunderBlogs® & News

Nearby

Air Quality

  Air Quality AQ Index Pollutant
Not available.

Snow Depth

Station Depth Elevation

Earthquake Activity

City Distance Mag. Time & Date
Minimum magnitude displayed is 2.5.

Coastal Water Temperatures

Place Temperature

Stations

Nearby Weather Stations

Station Location Temp. Windchill Dew Point Humidity Wind Precip. Elev Updated Type